Time;durP1;ratioP1;P1;durP2;ratioP2;P2;SDS_P1;SDS_P2;PMS_P1;PMS_P2;Temp;Humidity;BMP_temperature;BMP_pressure;BME280_temperature;BME280_humidity;BME280_pressure;Samples;Min_cycle;Max_cycle;Signal;HPM_P1;HPM_P2
2023/12/06 00:00:00;;;;;;;5.72;3.15;;;;;;;5.33;83.14;99946.28;4115461;28;20046;-67
2023/12/06 00:02:04;;;;;;;4.38;3.20;;;;;;;5.31;83.49;99954.81;4127322;28;20046;-67
2023/12/06 00:04:06;;;;;;;2.33;1.95;;;;;;;5.34;83.08;99960.91;4114508;28;20052;-67
2023/12/06 00:06:10;;;;;;;4.15;2.85;;;;;;;5.32;83.58;99954.84;4114349;28;20045;-66
2023/12/06 00:08:13;;;;;;;6.85;3.38;;;;;;;5.37;83.06;99953.28;4112091;28;20094;-67
2023/12/06 00:10:17;;;;;;;4.53;3.00;;;;;;;5.39;83.23;99954.19;4113696;28;20366;-66
2023/12/06 00:12:20;;;;;;;4.53;2.70;;;;;;;5.34;83.46;99957.47;4114744;28;20035;-66
2023/12/06 00:14:22;;;;;;;2.67;2.25;;;;;;;5.35;83.67;99960.09;4113956;28;20067;-66
2023/12/06 00:16:26;;;;;;;4.90;3.05;;;;;;;5.30;83.62;99964.25;4113501;28;20089;-66
2023/12/06 00:18:28;;;;;;;5.68;3.40;;;;;;;5.28;83.95;99955.59;4112971;28;20138;-66
2023/12/06 00:20:31;;;;;;;4.00;2.58;;;;;;;5.31;83.57;99967.69;4113919;28;20482;-66
2023/12/06 00:22:34;;;;;;;4.70;3.13;;;;;;;5.33;83.72;99966.03;4096698;29;20158;-67
2023/12/06 00:24:37;;;;;;;4.78;2.65;;;;;;;5.34;83.52;99962.63;4113748;28;20073;-67
2023/12/06 00:26:43;;;;;;;5.78;3.38;;;;;;;5.35;83.57;99964.38;4113763;28;20074;-66
2023/12/06 00:28:45;;;;;;;;;;;;;;;5.27;83.58;99966.75;4111389;28;20455;-66
2023/12/06 00:30:48;;;;;;;3.58;2.65;;;;;;;5.27;83.81;99960.72;4108277;28;20348;-66
2023/12/06 00:32:51;;;;;;;5.88;2.92;;;;;;;5.36;83.64;99963.53;4114074;28;20117;-66
2023/12/06 00:34:53;;;;;;;3.60;2.70;;;;;;;5.28;83.71;99967.63;4112954;28;20050;-66
2023/12/06 00:36:56;;;;;;;3.47;2.63;;;;;;;5.30;83.62;99965.94;4109826;28;20077;-66
2023/12/06 00:38:58;;;;;;;5.95;2.47;;;;;;;5.18;83.74;99961.31;4111009;28;20409;-66
2023/12/06 00:41:01;;;;;;;3.67;2.47;;;;;;;5.18;83.94;99966.47;4125492;28;20094;-67
2023/12/06 00:43:06;;;;;;;3.58;2.63;;;;;;;5.17;84.07;99963.03;4112501;28;20051;-66
2023/12/06 00:45:09;;;;;;;4.10;3.42;;;;;;;5.18;84.25;99972.53;4112305;28;20043;-67
2023/12/06 00:47:13;;;;;;;4.10;2.83;;;;;;;5.27;84.07;99974.50;4126657;28;20034;-66
2023/12/06 00:49:18;;;;;;;3.78;2.55;;;;;;;5.29;83.99;99974.53;4112369;28;20097;-66
2023/12/06 00:51:20;;;;;;;4.00;2.65;;;;;;;5.40;83.95;99978.25;4113103;28;20389;-67
2023/12/06 00:53:23;;;;;;;3.15;2.33;;;;;;;5.41;83.53;99980.00;4114406;28;20424;-67
2023/12/06 00:55:26;;;;;;;3.83;2.42;;;;;;;5.40;83.66;99984.28;4113200;28;20684;-67
2023/12/06 00:57:30;;;;;;;4.55;2.85;;;;;;;5.42;83.44;99981.75;4113290;28;20484;-67
2023/12/06 00:59:34;;;;;;;3.25;2.80;;;;;;;5.42;83.66;99982.63;4112965;28;20034;-66
2023/12/06 01:01:38;;;;;;;4.55;2.70;;;;;;;5.40;83.68;99980.81;4112392;28;20066;-66
2023/12/06 01:03:42;;;;;;;4.20;2.75;;;;;;;5.42;83.66;99992.06;4112313;28;20066;-67
2023/12/06 01:05:44;;;;;;;4.53;2.97;;;;;;;5.46;83.62;99987.84;4112478;28;20452;-67
2023/12/06 01:07:47;;;;;;;3.97;3.15;;;;;;;5.48;83.40;99988.78;4113728;28;20500;-66
2023/12/06 01:09:50;;;;;;;3.88;2.70;;;;;;;5.46;83.38;99987.84;4113716;28;20471;-66
2023/12/06 01:11:53;;;;;;;6.75;3.20;;;;;;;5.49;83.49;99988.84;4112234;28;20038;-66
2023/12/06 01:13:55;;;;;;;4.10;2.40;;;;;;;5.53;82.90;99979.47;4113871;28;20409;-66
2023/12/06 01:15:59;;;;;;;3.83;2.72;;;;;;;5.50;83.39;99990.56;4113594;28;20031;-67
2023/12/06 01:18:03;;;;;;;3.70;2.30;;;;;;;5.53;82.82;99990.63;4113140;28;20126;-66
2023/12/06 01:20:08;;;;;;;5.50;2.90;;;;;;;5.47;82.97;99997.34;4112304;28;20156;-66
2023/12/06 01:22:11;;;;;;;6.18;3.28;;;;;;;5.53;82.88;100000.09;4112026;28;20133;-67
2023/12/06 01:24:14;;;;;;;4.72;3.25;;;;;;;5.48;83.14;99992.22;4110123;28;20097;-66
2023/12/06 01:26:17;;;;;;;4.93;2.88;;;;;;;5.43;83.46;99998.94;4112449;28;20034;-66
2023/12/06 01:28:20;;;;;;;3.58;2.65;;;;;;;5.45;83.11;100002.47;4113327;28;20039;-67
2023/12/06 01:30:24;;;;;;;5.18;2.65;;;;;;;5.44;83.40;99997.25;4113332;28;20034;-66
2023/12/06 01:32:27;;;;;;;4.15;3.20;;;;;;;5.47;83.67;100013.69;4113759;28;20053;-66
2023/12/06 01:34:30;;;;;;;4.32;2.72;;;;;;;5.50;83.23;99997.44;4112468;28;20173;-66
2023/12/06 01:36:32;;;;;;;5.30;2.80;;;;;;;5.51;83.38;100007.78;4109902;28;20039;-66
2023/12/06 01:38:35;;;;;;;2.95;2.28;;;;;;;5.51;83.38;100004.34;4113327;28;20048;-66
2023/12/06 01:40:39;;;;;;;2.63;2.03;;;;;;;5.54;83.15;100009.56;4112743;28;20049;-66
2023/12/06 01:42:45;;;;;;;4.93;2.83;;;;;;;5.51;83.55;100018.09;4111667;28;20509;-66
2023/12/06 01:44:48;;;;;;;4.43;3.75;;;;;;;5.55;83.39;100012.19;4111735;28;20094;-66
2023/12/06 01:46:50;;;;;;;5.03;3.33;;;;;;;5.53;83.17;100019.00;4112204;28;20122;-66
2023/12/06 01:48:58;;;;;;;5.22;2.83;;;;;;;5.56;83.28;100016.53;4111383;28;20105;-66
2023/12/06 01:51:00;;;;;;;3.67;2.70;;;;;;;5.53;83.08;100019.00;4111790;28;20034;-66
2023/12/06 01:53:04;;;;;;;5.55;3.40;;;;;;;5.54;83.15;100020.75;4107736;28;20529;-66
2023/12/06 01:55:08;;;;;;;4.00;2.95;;;;;;;5.41;83.40;100022.09;4113964;28;20121;-66
2023/12/06 01:57:12;;;;;;;5.32;3.47;;;;;;;5.38;83.77;100022.03;4109116;28;20066;-66
2023/12/06 01:59:15;;;;;;;3.67;2.75;;;;;;;5.44;83.79;100026.47;4111293;28;20054;-66
2023/12/06 02:01:18;;;;;;;4.78;3.45;;;;;;;5.45;83.68;100027.34;4112250;28;20065;-66
2023/12/06 02:03:20;;;;;;;4.70;3.58;;;;;;;5.48;83.28;100024.88;4112263;28;20034;-66
2023/12/06 02:05:25;;;;;;;3.80;2.88;;;;;;;5.49;83.57;100022.34;4111761;28;20047;-66
2023/12/06 02:07:30;;;;;;;4.65;3.33;;;;;;;5.57;83.45;100026.00;4110858;28;20042;-67
2023/12/06 02:09:33;;;;;;;3.88;2.92;;;;;;;5.52;83.64;100030.16;4112120;28;20397;-66
2023/12/06 02:11:36;;;;;;;4.07;2.88;;;;;;;5.58;82.99;100034.63;4111852;28;20046;-66
2023/12/06 02:13:39;;;;;;;3.97;3.03;;;;;;;5.55;83.31;100040.56;4111664;28;20064;-66
2023/12/06 02:15:42;;;;;;;5.15;3.45;;;;;;;5.56;83.30;100032.00;4112989;28;20039;-66
2023/12/06 02:17:46;;;;;;;3.88;2.78;;;;;;;5.56;83.50;100036.25;4111070;28;20050;-66
2023/12/06 02:19:49;;;;;;;4.38;3.30;;;;;;;5.65;83.06;100035.63;4111839;28;20508;-66
2023/12/06 02:21:54;;;;;;;5.47;3.05;;;;;;;5.71;82.51;100033.22;4112473;28;20449;-66
2023/12/06 02:23:59;;;;;;;3.28;2.35;;;;;;;5.66;82.65;100034.81;4107970;28;20042;-66
2023/12/06 02:26:03;;;;;;;5.88;3.30;;;;;;;5.63;83.08;100037.31;4112737;28;20077;-66
2023/12/06 02:28:06;;;;;;;4.10;3.08;;;;;;;5.65;83.09;100035.63;4111758;28;20042;-66
2023/12/06 02:30:10;;;;;;;2.67;2.35;;;;;;;5.65;83.23;100027.91;4110536;28;20528;-67
2023/12/06 02:32:13;;;;;;;5.53;3.40;;;;;;;5.69;83.13;100032.31;4112100;28;20030;-67
2023/12/06 02:34:20;;;;;;;4.07;3.22;;;;;;;5.66;82.79;100034.81;4112043;28;20093;-66
2023/12/06 02:36:24;;;;;;;4.45;3.47;;;;;;;5.66;83.00;100038.25;4110668;28;20085;-66
2023/12/06 02:38:29;;;;;;;4.82;3.20;;;;;;;5.64;83.25;100033.91;4112333;28;20046;-66
2023/12/06 02:40:31;;;;;;;;;;;;;;;5.54;83.28;100032.78;4111879;28;20439;-66
2023/12/06 02:42:36;;;;;;;3.00;2.25;;;;;;;5.57;83.67;100040.59;4122589;28;20384;-67
2023/12/06 02:44:39;;;;;;;4.57;2.85;;;;;;;5.62;83.48;100035.56;4112397;28;20401;-67
2023/12/06 02:46:42;;;;;;;4.72;3.30;;;;;;;5.65;83.29;100035.63;4110959;28;20039;-66
2023/12/06 02:48:45;;;;;;;5.10;2.90;;;;;;;5.69;83.21;100040.06;4111546;28;20085;-67
2023/12/06 02:50:49;;;;;;;3.45;2.75;;;;;;;5.73;83.08;100034.16;4110915;28;20505;-67
2023/12/06 02:52:52;;;;;;;4.50;3.00;;;;;;;5.64;82.75;100036.50;4111695;28;20326;-67
2023/12/06 02:54:55;;;;;;;3.45;2.33;;;;;;;5.69;82.49;100042.63;4112119;28;20070;-66
2023/12/06 02:56:57;;;;;;;3.95;2.78;;;;;;;5.67;82.85;100036.56;4113013;28;20474;-66
2023/12/06 02:59:02;;;;;;;2.80;2.50;;;;;;;5.67;82.81;100039.16;4106618;28;20510;-67
2023/12/06 03:01:05;;;;;;;3.08;2.30;;;;;;;5.62;82.88;100039.00;4112063;28;20409;-67
2023/12/06 03:03:08;;;;;;;3.08;2.40;;;;;;;5.50;83.28;100042.13;4112749;28;20034;-67
2023/12/06 03:05:11;;;;;;;4.82;2.67;;;;;;;5.49;83.48;100039.50;4108945;28;20417;-67
2023/12/06 03:07:14;;;;;;;3.72;2.67;;;;;;;5.56;83.30;100041.41;4094346;29;20043;-67
2023/12/06 03:09:17;;;;;;;2.88;2.20;;;;;;;5.55;83.24;100043.13;4111523;28;20401;-67
2023/12/06 03:11:20;;;;;;;3.10;2.40;;;;;;;5.54;83.35;100043.97;4111588;28;20031;-67
2023/12/06 03:13:23;;;;;;;3.97;2.58;;;;;;;5.55;83.51;100034.53;4112271;28;20110;-67
2023/12/06 03:15:27;;;;;;;5.57;4.28;;;;;;;5.51;83.60;100038.72;4111668;28;20568;-67
2023/12/06 03:17:31;;;;;;;3.85;2.50;;;;;;;5.36;84.10;100038.28;4112080;28;20101;-67
2023/12/06 03:19:34;;;;;;;3.53;2.70;;;;;;;5.18;84.73;100043.78;4110546;28;20038;-67
2023/12/06 03:21:37;;;;;;;5.03;3.40;;;;;;;5.25;84.90;100043.13;4106697;28;20070;-67
2023/12/06 03:23:40;;;;;;;4.85;3.05;;;;;;;5.25;85.10;100043.13;4111801;28;20061;-67
2023/12/06 03:25:43;;;;;;;4.20;2.58;;;;;;;5.33;84.74;100041.66;4112225;28;20035;-67
2023/12/06 03:27:46;;;;;;;3.90;2.40;;;;;;;5.45;84.74;100042.81;4112172;28;20137;-67
2023/12/06 03:29:49;;;;;;;5.82;2.67;;;;;;;5.46;84.33;100035.16;4110877;28;20070;-67
2023/12/06 03:31:53;;;;;;;3.10;2.55;;;;;;;5.47;84.13;100033.44;4110240;28;20043;-67
2023/12/06 03:33:56;;;;;;;4.28;2.88;;;;;;;5.42;84.08;100038.47;4111065;28;20089;-66
2023/12/06 03:35:59;;;;;;;3.38;2.42;;;;;;;5.38;84.59;100032.34;4111831;28;20039;-66
2023/12/06 03:38:02;;;;;;;3.95;2.75;;;;;;;5.39;84.55;100044.41;4111571;28;20035;-66
2023/12/06 03:40:07;;;;;;;3.90;2.85;;;;;;;5.35;84.77;100039.13;4110644;28;20038;-67
2023/12/06 03:42:10;;;;;;;5.20;2.88;;;;;;;5.42;85.06;100044.50;4112183;28;20066;-66
2023/12/06 03:44:11;;;;;;;3.85;2.70;;;;;;;5.47;84.54;100036.88;4115573;28;20050;-66
2023/12/06 03:46:14;;;;;;;4.22;3.10;;;;;;;5.46;84.62;100040.31;4115236;28;20042;-66
2023/12/06 03:48:19;;;;;;;3.25;2.40;;;;;;;5.47;84.61;100036.88;4114315;28;20056;-66
2023/12/06 03:50:22;;;;;;;2.75;2.20;;;;;;;5.43;85.06;100032.47;4113780;28;20113;-66
2023/12/06 03:52:24;;;;;;;3.58;2.72;;;;;;;5.49;84.47;100036.91;4114725;28;20119;-66
2023/12/06 03:54:27;;;;;;;3.88;2.65;;;;;;;5.48;84.75;100037.78;4114817;28;20544;-66
2023/12/06 03:56:30;;;;;;;4.90;3.28;;;;;;;5.50;85.13;100042.13;4114772;28;20042;-66
2023/12/06 03:58:34;;;;;;;3.72;2.60;;;;;;;5.49;84.59;100037.81;4113586;28;20035;-66
2023/12/06 04:00:38;;;;;;;4.82;3.22;;;;;;;5.50;85.16;100039.53;4113424;28;20044;-66
2023/12/06 04:02:41;;;;;;;3.85;2.97;;;;;;;5.50;84.99;100036.09;4115233;28;20030;-66
2023/12/06 04:04:45;;;;;;;3.67;2.38;;;;;;;5.59;84.72;100037.22;4114105;28;20501;-66
2023/12/06 04:06:48;;;;;;;5.40;3.05;;;;;;;5.59;84.67;100042.41;4114842;28;20405;-66
2023/12/06 04:08:50;;;;;;;3.38;2.38;;;;;;;5.62;84.27;100051.91;4114681;28;20043;-66
2023/12/06 04:10:53;;;;;;;3.90;2.78;;;;;;;5.58;84.44;100035.47;4114577;28;20133;-67
2023/12/06 04:12:56;;;;;;;4.13;2.97;;;;;;;5.56;84.62;100036.25;4115216;28;20053;-67
2023/12/06 04:14:58;;;;;;;4.45;2.88;;;;;;;5.54;84.71;100038.81;4114691;28;20047;-67
2023/12/06 04:17:01;;;;;;;5.28;3.22;;;;;;;5.58;84.75;100040.63;4114980;28;20036;-67
2023/12/06 04:19:08;;;;;;;4.10;2.67;;;;;;;5.58;84.59;100040.63;4111848;28;20162;-67
2023/12/06 04:21:12;;;;;;;4.25;3.00;;;;;;;5.65;84.70;100045.97;4114345;28;20442;-67
2023/12/06 04:23:15;;;;;;;3.50;2.55;;;;;;;5.54;84.37;100046.53;4127404;28;20137;-67
2023/12/06 04:25:19;;;;;;;6.05;3.75;;;;;;;5.57;84.45;100044.03;4114285;28;20543;-67
2023/12/06 04:27:21;;;;;;;3.88;3.03;;;;;;;5.50;84.69;100042.13;4114429;28;20062;-67
2023/12/06 04:29:25;;;;;;;5.00;2.63;;;;;;;5.53;85.04;100042.19;4114522;28;20045;-66
2023/12/06 04:31:28;;;;;;;3.78;2.92;;;;;;;5.52;85.17;100049.91;4112436;28;21074;-66
2023/12/06 04:33:31;;;;;;;3.97;2.72;;;;;;;5.67;84.52;100052.03;4113623;28;20042;-66
2023/12/06 04:35:34;;;;;;;5.70;3.50;;;;;;;5.64;84.67;100050.25;4114222;28;20050;-67
2023/12/06 04:37:38;;;;;;;3.97;2.92;;;;;;;5.63;84.73;100057.94;4114200;28;20230;-66
2023/12/06 04:39:42;;;;;;;3.97;2.80;;;;;;;5.67;84.44;100062.38;4112181;28;20094;-66
2023/12/06 04:41:45;;;;;;;3.80;2.90;;;;;;;5.70;84.66;100057.28;4112606;28;20414;-66
2023/12/06 04:43:48;;;;;;;4.35;2.53;;;;;;;5.73;84.51;100059.94;4112205;28;20034;-66
2023/12/06 04:45:51;;;;;;;4.68;3.65;;;;;;;5.77;84.77;100066.94;4112511;28;20042;-66
2023/12/06 04:47:55;;;;;;;3.55;2.63;;;;;;;5.73;84.68;100070.25;4112890;28;20043;-66
2023/12/06 04:49:58;;;;;;;3.90;2.85;;;;;;;5.75;84.66;100068.59;4109722;28;20042;-67
2023/12/06 04:52:01;;;;;;;4.22;2.55;;;;;;;5.73;84.37;100071.13;4112711;28;20039;-66
2023/12/06 04:54:06;;;;;;;4.40;2.95;;;;;;;5.67;84.56;100065.81;4109439;28;20042;-65
2023/12/06 04:56:12;;;;;;;4.25;3.00;;;;;;;5.58;84.98;100071.56;4112890;28;20049;-65
2023/12/06 04:58:14;;;;;;;3.90;3.03;;;;;;;5.65;84.85;100074.31;4109495;28;20554;-65
2023/12/06 05:00:21;;;;;;;4.28;2.80;;;;;;;5.67;84.69;100077.84;4110939;28;20038;-65
2023/12/06 05:02:23;;;;;;;3.90;2.70;;;;;;;5.68;84.46;100076.97;4114532;28;20039;-65
2023/12/06 05:04:27;;;;;;;5.28;3.38;;;;;;;5.74;84.55;100077.19;4113315;28;20039;-65
2023/12/06 05:06:30;;;;;;;5.65;3.40;;;;;;;5.71;84.55;100074.47;4107736;28;20465;-66
2023/12/06 05:08:33;;;;;;;4.18;2.83;;;;;;;5.66;84.32;100083.81;4096181;29;20406;-66
2023/12/06 05:10:38;;;;;;;5.47;3.10;;;;;;;5.64;84.44;100080.34;4112107;28;20405;-65
2023/12/06 05:12:41;;;;;;;3.83;2.80;;;;;;;5.65;84.62;100082.94;4109504;28;20035;-65
2023/12/06 05:14:44;;;;;;;4.35;3.22;;;;;;;5.65;84.79;100089.78;4113609;28;20777;-65
2023/12/06 05:16:46;;;;;;;3.75;2.70;;;;;;;5.62;84.83;100093.16;4111649;28;20042;-65
2023/12/06 05:18:49;;;;;;;6.72;4.65;;;;;;;5.63;84.68;100096.63;4111348;28;20089;-65
2023/12/06 05:20:52;;;;;;;13.52;5.93;;;;;;;5.56;84.65;100093.88;4112200;28;20118;-65
2023/12/06 05:22:54;;;;;;;8.73;6.80;;;;;;;5.56;84.94;100096.47;4108050;28;20078;-65
2023/12/06 05:24:57;;;;;;;12.80;9.07;;;;;;;5.50;84.65;100093.69;4108840;28;20038;-64
2023/12/06 05:27:01;;;;;;;13.63;10.07;;;;;;;5.54;85.00;100100.69;4111550;28;20065;-65
2023/12/06 05:29:04;;;;;;;18.27;14.98;;;;;;;5.54;84.59;100099.81;4112422;28;20098;-65
2023/12/06 05:31:07;;;;;;;14.52;11.40;;;;;;;5.50;84.92;100114.31;4114050;28;20138;-65
2023/12/06 05:33:10;;;;;;;12.15;10.85;;;;;;;5.42;85.03;100103.78;4113957;28;20394;-65
2023/12/06 05:35:14;;;;;;;16.98;12.43;;;;;;;5.40;84.90;100105.44;4113431;28;20042;-64
2023/12/06 05:37:17;;;;;;;12.90;11.48;;;;;;;5.46;85.08;100120.22;4111933;28;20038;-65
2023/12/06 05:39:19;;;;;;;19.65;12.27;;;;;;;5.45;85.04;100115.91;4113003;28;20038;-65
2023/12/06 05:41:22;;;;;;;18.00;10.77;;;;;;;5.37;84.89;100114.78;4113086;28;20039;-65
2023/12/06 05:43:27;;;;;;;15.57;11.50;;;;;;;5.37;84.92;100113.09;4113613;28;20092;-64
2023/12/06 05:45:30;;;;;;;11.32;9.10;;;;;;;5.36;85.25;100120.75;4113058;28;20138;-65
2023/12/06 05:47:33;;;;;;;7.53;5.97;;;;;;;5.40;85.34;100112.28;4113534;28;20043;-65
2023/12/06 05:49:36;;;;;;;7.88;5.05;;;;;;;5.34;85.24;100123.28;4112896;28;20073;-65
2023/12/06 05:51:39;;;;;;;6.03;4.15;;;;;;;5.32;85.14;100129.25;4114092;28;20058;-65
2023/12/06 05:53:43;;;;;;;8.02;4.97;;;;;;;5.30;85.52;100131.78;4113344;28;20045;-65
2023/12/06 05:55:46;;;;;;;6.93;4.25;;;;;;;5.32;85.47;100134.41;4111696;28;20133;-65
2023/12/06 05:57:48;;;;;;;8.40;4.43;;;;;;;5.31;85.33;100130.94;4110286;28;20042;-65
2023/12/06 05:59:53;;;;;;;6.32;4.25;;;;;;;5.34;85.22;100133.59;4109284;28;20046;-65
2023/12/06 06:01:55;;;;;;;5.20;3.88;;;;;;;5.33;85.06;100131.88;4113551;28;20062;-65
2023/12/06 06:03:58;;;;;;;9.30;4.32;;;;;;;5.39;85.22;100133.75;4111144;28;20067;-65
2023/12/06 06:06:05;;;;;;;6.35;4.15;;;;;;;5.42;84.83;100136.44;4112319;28;20508;-65
2023/12/06 06:08:08;;;;;;;8.38;5.03;;;;;;;5.45;84.79;100141.66;4110733;28;20050;-65
2023/12/06 06:10:11;;;;;;;6.60;4.30;;;;;;;5.52;84.57;100140.13;4113075;28;20089;-65
2023/12/06 06:12:13;;;;;;;6.88;5.00;;;;;;;5.55;84.45;100133.38;4112837;28;20045;-64
2023/12/06 06:14:17;;;;;;;9.20;5.93;;;;;;;5.59;84.10;100132.66;4112709;28;20109;-64
2023/12/06 06:16:21;;;;;;;12.85;8.23;;;;;;;5.64;83.96;100137.06;4113822;28;20035;-65
2023/12/06 06:18:25;;;;;;;16.27;10.00;;;;;;;5.58;84.06;100146.34;4111402;28;20122;-65
2023/12/06 06:20:28;;;;;;;24.45;14.35;;;;;;;5.53;83.24;100142.75;4113039;28;20038;-65
2023/12/06 06:22:30;;;;;;;12.27;8.27;;;;;;;5.54;83.04;100146.22;4111720;28;20043;-65
2023/12/06 06:24:34;;;;;;;9.70;7.05;;;;;;;5.57;83.10;100147.19;4113479;28;20515;-65
2023/12/06 06:26:37;;;;;;;10.13;5.40;;;;;;;5.54;82.77;100149.66;4112870;28;20043;-65
2023/12/06 06:28:40;;;;;;;7.70;5.93;;;;;;;5.53;82.36;100158.22;4113152;28;20070;-65
2023/12/06 06:30:43;;;;;;;9.18;6.88;;;;;;;5.54;82.41;100157.41;4113147;28;20035;-65
2023/12/06 06:32:47;;;;;;;8.73;6.10;;;;;;;5.56;82.71;100166.06;4113368;28;20497;-65
2023/12/06 06:34:51;;;;;;;;;;;;;;;5.55;82.41;100174.63;4110821;28;20039;-65
2023/12/06 06:36:54;;;;;;;8.95;6.45;;;;;;;5.54;82.29;100172.00;4114941;28;19922;-65
2023/12/06 06:38:57;;;;;;;8.20;6.38;;;;;;;5.56;81.90;100175.50;4113412;28;20082;-65
2023/12/06 06:41:00;;;;;;;12.45;8.68;;;;;;;5.54;81.92;100178.03;4112873;28;20074;-65
2023/12/06 06:43:03;;;;;;;11.60;8.23;;;;;;;5.55;80.67;100189.25;4112501;28;20039;-65
2023/12/06 06:45:08;;;;;;;9.93;6.63;;;;;;;5.47;80.78;100181.25;4112708;28;20127;-66
2023/12/06 06:47:11;;;;;;;9.10;7.18;;;;;;;5.42;79.91;100190.56;4112918;28;20461;-66
2023/12/06 06:49:15;;;;;;;10.30;7.55;;;;;;;5.29;79.29;100188.44;4112936;28;20065;-66
2023/12/06 06:51:17;;;;;;;9.70;6.90;;;;;;;5.23;79.57;100192.56;4112430;28;20126;-66
2023/12/06 06:53:20;;;;;;;11.07;8.10;;;;;;;5.29;79.58;100201.34;4112664;28;20039;-66
2023/12/06 06:55:23;;;;;;;9.85;7.50;;;;;;;5.27;79.27;100208.13;4112852;28;20129;-66
2023/12/06 06:57:28;;;;;;;10.55;8.05;;;;;;;5.25;78.53;100203.78;4112875;28;20102;-65
2023/12/06 06:59:31;;;;;;;10.80;7.82;;;;;;;5.17;79.04;100205.25;4112753;28;20439;-65
2023/12/06 07:01:34;;;;;;;12.60;8.50;;;;;;;5.16;78.82;100216.38;4112523;28;20129;-66
2023/12/06 07:03:37;;;;;;;10.93;8.23;;;;;;;5.09;78.66;100214.44;4111894;28;20039;-66
2023/12/06 07:05:42;;;;;;;11.93;8.20;;;;;;;5.11;79.14;100217.06;4111811;28;20141;-65
2023/12/06 07:07:45;;;;;;;10.57;8.45;;;;;;;5.11;79.03;100223.09;4112226;28;20481;-65
2023/12/06 07:09:47;;;;;;;10.48;8.13;;;;;;;5.14;79.07;100223.22;4109926;28;20050;-65
2023/12/06 07:11:50;;;;;;;10.40;8.20;;;;;;;5.13;78.23;100230.88;4113196;28;20050;-65
2023/12/06 07:13:53;;;;;;;9.27;7.07;;;;;;;5.04;77.84;100226.31;4112244;28;20129;-65
2023/12/06 07:15:56;;;;;;;9.40;7.18;;;;;;;5.02;77.29;100243.41;4112091;28;20077;-65
2023/12/06 07:17:59;;;;;;;9.70;7.18;;;;;;;5.01;76.97;100242.53;4114513;28;20457;-65
2023/12/06 07:20:01;;;;;;;8.70;7.07;;;;;;;4.99;76.77;100257.03;4111932;28;20053;-65
2023/12/06 07:22:06;;;;;;;7.97;5.82;;;;;;;5.00;76.38;100258.81;4115486;28;20391;-65
2023/12/06 07:24:09;;;;;;;10.05;6.45;;;;;;;4.99;76.37;100254.47;4114423;28;20050;-65
2023/12/06 07:26:12;;;;;;;9.15;7.00;;;;;;;5.02;76.51;100259.75;4115789;28;20069;-65
2023/12/06 07:28:15;;;;;;;9.80;7.10;;;;;;;5.07;76.47;100263.34;4111448;28;20050;-65
2023/12/06 07:30:18;;;;;;;9.40;6.57;;;;;;;5.02;76.48;100267.47;4115245;28;20126;-65
2023/12/06 07:32:21;;;;;;;8.65;6.70;;;;;;;4.98;76.12;100270.78;4115204;28;20035;-65
2023/12/06 07:34:25;;;;;;;9.07;6.50;;;;;;;5.06;76.07;100271.88;4113096;28;20137;-65
2023/12/06 07:36:40;;;;;;;8.65;6.28;;;;;;;4.99;75.68;100284.53;4115318;28;20031;-65
2023/12/06 07:38:45;;;;;;;8.77;6.32;;;;;;;4.99;75.85;100284.53;4115621;28;20073;-66
2023/12/06 07:40:48;;;;;;;8.85;6.45;;;;;;;5.04;75.81;100283.00;4115603;28;20039;-66
2023/12/06 07:42:51;;;;;;;9.73;7.40;;;;;;;5.02;76.30;100285.53;4114127;28;20577;-65
2023/12/06 07:44:54;;;;;;;10.23;6.43;;;;;;;5.03;76.01;100292.41;4115330;28;20035;-65
2023/12/06 07:46:57;;;;;;;9.75;6.78;;;;;;;5.02;75.32;100289.78;4115451;28;20045;-65
2023/12/06 07:49:00;;;;;;;9.00;6.40;;;;;;;5.07;75.63;100299.41;4114311;28;20149;-65
2023/12/06 07:51:03;;;;;;;8.25;5.82;;;;;;;5.05;75.20;100300.19;4115847;28;20493;-64
2023/12/06 07:53:06;;;;;;;8.77;6.47;;;;;;;5.07;75.14;100303.69;4115071;28;20044;-64
2023/12/06 07:55:13;;;;;;;10.70;6.47;;;;;;;5.09;75.01;100307.19;4115563;28;20497;-64
2023/12/06 07:57:16;;;;;;;8.25;6.00;;;;;;;5.07;75.02;100314.00;4111840;28;20057;-65
2023/12/06 07:59:19;;;;;;;8.10;5.72;;;;;;;5.05;75.20;100310.47;4115050;28;20094;-64
2023/12/06 08:01:22;;;;;;;9.73;6.72;;;;;;;5.04;74.82;100325.06;4114823;28;20396;-64
2023/12/06 08:03:30;;;;;;;8.32;5.43;;;;;;;4.93;74.43;100323.81;4117445;28;20035;-65
2023/12/06 08:05:33;;;;;;;8.70;6.32;;;;;;;4.92;74.90;100322.09;4117487;28;20039;-65
2023/12/06 08:07:37;;;;;;;;;;;;;;;4.86;75.19;100327.91;4114047;28;20410;-64
2023/12/06 08:10:33;;;;;;;9.48;6.35;;;;;;;4.90;74.90;100332.31;4116149;28;19953;-65
2023/12/06 08:12:38;;;;;;;8.00;5.75;;;;;;;4.93;74.88;100333.25;4112695;28;20046;-65
2023/12/06 08:14:43;;;;;;;;;;;;;;;4.86;74.98;100334.72;4116476;28;20053;-64
2023/12/06 08:16:46;;;;;;;7.78;5.90;;;;;;;4.89;75.19;100325.44;4115556;28;19926;-64
2023/12/06 08:18:49;;;;;;;7.95;6.00;;;;;;;4.90;75.18;100334.03;4113687;28;20551;-64
2023/12/06 08:20:53;;;;;;;8.23;5.65;;;;;;;4.85;75.06;100339.03;4115158;28;20127;-64
2023/12/06 08:22:57;;;;;;;7.40;5.82;;;;;;;4.87;75.42;100342.50;4110962;28;20074;-65
2023/12/06 08:25:00;;;;;;;7.63;5.45;;;;;;;4.96;75.03;100343.66;4113593;28;20067;-65
2023/12/06 08:27:04;;;;;;;9.88;5.75;;;;;;;4.85;74.68;100351.91;4114249;28;20054;-65
2023/12/06 08:29:08;;;;;;;8.32;5.72;;;;;;;4.87;74.71;100351.94;4114845;28;20042;-64
2023/12/06 08:31:12;;;;;;;9.27;6.40;;;;;;;4.85;74.44;100358.75;4112438;28;20570;-65
2023/12/06 08:33:15;;;;;;;8.48;6.15;;;;;;;4.86;74.84;100356.25;4114934;28;20121;-65
2023/12/06 08:35:18;;;;;;;8.68;5.97;;;;;;;4.86;74.60;100363.06;4114852;28;20504;-65
2023/12/06 08:37:21;;;;;;;8.32;6.03;;;;;;;4.85;74.65;100367.34;4128989;28;20038;-65
2023/12/06 08:39:25;;;;;;;8.95;5.80;;;;;;;4.87;74.47;100363.13;4114373;28;20501;-65
2023/12/06 08:41:28;;;;;;;8.18;5.72;;;;;;;4.86;74.56;100363.06;4116582;28;20070;-65
2023/12/06 08:43:34;;;;;;;7.57;5.13;;;;;;;4.84;73.91;100363.00;4115737;28;20101;-65
2023/12/06 08:45:38;;;;;;;7.90;5.47;;;;;;;4.86;74.08;100361.38;4116877;28;20421;-65
2023/12/06 08:47:42;;;;;;;7.88;5.45;;;;;;;4.87;74.33;100362.25;4116748;28;20043;-65
2023/12/06 08:49:46;;;;;;;8.77;6.13;;;;;;;4.84;73.75;100363.00;4112325;28;20046;-65
2023/12/06 08:51:51;;;;;;;8.00;5.53;;;;;;;4.88;73.97;100370.03;4111630;28;20074;-66
2023/12/06 08:53:54;;;;;;;8.60;6.57;;;;;;;4.90;73.77;100376.09;4114345;28;20097;-66
2023/12/06 08:55:56;;;;;;;7.68;5.53;;;;;;;4.87;73.70;100368.28;4113468;28;20045;-66
2023/12/06 08:57:59;;;;;;;8.38;6.00;;;;;;;4.92;73.52;100380.44;4113750;28;20548;-66
2023/12/06 09:00:03;;;;;;;13.30;6.68;;;;;;;4.87;73.46;100378.56;4113570;28;20409;-66
2023/12/06 09:02:08;;;;;;;7.77;5.93;;;;;;;4.86;73.48;100387.16;4114400;28;20089;-65
2023/12/06 09:04:10;;;;;;;8.65;6.45;;;;;;;4.89;73.25;100392.41;4114675;28;20137;-65
2023/12/06 09:06:13;;;;;;;8.40;6.03;;;;;;;4.93;73.53;100392.50;4114768;28;20351;-65
2023/12/06 09:08:16;;;;;;;10.57;5.95;;;;;;;5.00;73.15;100400.50;4113508;28;20031;-66
2023/12/06 09:10:18;;;;;;;9.32;6.97;;;;;;;5.04;73.24;100398.94;4113397;28;20059;-64
2023/12/06 09:12:22;;;;;;;11.25;6.95;;;;;;;5.07;72.94;100401.63;4109938;28;20036;-64
2023/12/06 09:14:25;;;;;;;9.73;6.70;;;;;;;5.07;73.16;100409.34;4114951;28;20039;-64
2023/12/06 09:16:27;;;;;;;11.15;6.57;;;;;;;5.02;73.23;100409.19;4111791;28;20146;-65
2023/12/06 09:18:31;;;;;;;11.50;7.47;;;;;;;5.00;73.06;100405.66;4114358;28;20097;-65
2023/12/06 09:20:34;;;;;;;9.90;7.03;;;;;;;4.96;73.11;100410.66;4113247;28;20417;-65
2023/12/06 09:22:37;;;;;;;8.55;6.30;;;;;;;4.97;73.03;100410.69;4114066;28;20034;-65
2023/12/06 09:24:40;;;;;;;9.25;6.63;;;;;;;4.97;72.85;100415.84;4113016;28;20121;-65
2023/12/06 09:26:44;;;;;;;9.50;6.35;;;;;;;5.04;72.54;100416.97;4094747;28;20036;-65
2023/12/06 09:28:46;;;;;;;10.63;6.68;;;;;;;5.04;72.81;100427.28;4112207;28;20501;-65
2023/12/06 09:30:49;;;;;;;9.77;7.03;;;;;;;5.08;73.16;100423.97;4111295;28;20097;-65
2023/12/06 09:32:52;;;;;;;9.77;6.05;;;;;;;5.07;72.77;100427.38;4114391;28;20045;-65
2023/12/06 09:34:57;;;;;;;10.80;6.72;;;;;;;5.07;72.62;100432.53;4113974;28;20043;-65
2023/12/06 09:37:00;;;;;;;9.43;6.90;;;;;;;5.09;72.74;100441.19;4113287;28;20042;-65
2023/12/06 09:39:05;;;;;;;12.37;6.10;;;;;;;5.11;72.73;100444.72;4113160;28;20050;-65
2023/12/06 09:41:08;;;;;;;8.70;6.38;;;;;;;5.09;72.77;100446.34;4113247;28;20125;-65